EGXT

RAF Wittering Airport

Wittering, United Kingdom
METAR EGXT 180814Z 30007KT CAVOK 02/01 Q1027 BLACKBLU
Observed Flight Rules
Dec-18 @ 08:14 UTC (35 minutes ago) Visual Flight Rules
Wind Visibility Clouds
300° at 7 knots 10,000+ meters
  • Clear skies
Temperatures Readings
Current 2°C / 36°F
Dewpoint 1°C / 34°F
Humidity 93%
Altimeter 30.32" Hg
Pressure 1027 hPa
Elevation 84
METAR EGXT 180814Z 30007KT CAVOK 02/01 Q1027 BLACKBLU
Observed Flight Rules
Dec-18 @ 08:14 UTC
(35 minutes ago)
VFR
Wind Visibility
300° at 7 knots 10,000+ meters
Clouds
  • Clear skies
Temperature Dewpoint
2°C / 36°F 1°C / 34°F
Humidity Altimeter Pressure
93% 30.32" Hg 1027 hPa